createdAt,value
2018-02-06T00:00:06.627Z,-0.95
2018-02-06T00:01:06.612Z,-1.00
2018-02-06T00:02:06.597Z,-1.02
2018-02-06T00:03:06.584Z,-0.99
2018-02-06T00:04:06.570Z,-1.07
2018-02-06T00:05:06.557Z,-1.05
2018-02-06T00:06:06.542Z,-1.03
2018-02-06T00:07:06.531Z,-1.00
2018-02-06T00:08:06.520Z,-0.92
2018-02-06T00:09:06.506Z,-0.86
2018-02-06T00:10:06.492Z,-0.90
2018-02-06T00:11:06.478Z,-0.92
2018-02-06T00:12:06.464Z,-1.05
2018-02-06T00:13:06.452Z,-0.99
2018-02-06T00:14:06.435Z,-1.03
2018-02-06T00:15:06.422Z,-1.11
2018-02-06T00:16:06.405Z,-1.10
2018-02-06T00:17:06.391Z,-1.08
2018-02-06T00:18:06.376Z,-1.07
2018-02-06T00:19:06.362Z,-1.10
2018-02-06T00:20:06.349Z,-1.17
2018-02-06T00:21:06.335Z,-1.13
2018-02-06T00:22:06.321Z,-1.14
2018-02-06T00:23:06.307Z,-1.20
2018-02-06T00:24:06.296Z,-1.14
2018-02-06T00:25:06.284Z,-1.13
2018-02-06T00:26:06.269Z,-1.21
2018-02-06T00:27:06.255Z,-1.25
2018-02-06T00:28:06.241Z,-1.25
2018-02-06T00:29:06.228Z,-1.32
2018-02-06T00:30:06.213Z,-1.31
2018-02-06T00:31:06.199Z,-1.36
2018-02-06T00:32:06.181Z,-1.38
2018-02-06T00:33:06.168Z,-1.33
2018-02-06T00:34:06.199Z,-1.31
2018-02-06T00:35:06.141Z,-1.31
2018-02-06T00:36:06.125Z,-1.29
2018-02-06T00:37:06.111Z,-1.26
2018-02-06T00:38:06.096Z,-1.31
2018-02-06T00:39:06.083Z,-1.25
2018-02-06T00:40:06.073Z,-1.32
2018-02-06T00:41:06.066Z,-1.29
2018-02-06T00:42:06.045Z,-1.32
2018-02-06T00:43:06.030Z,-1.31
2018-02-06T00:44:06.022Z,-1.31
2018-02-06T00:45:06.003Z,-1.29
2018-02-06T00:46:06.015Z,-1.28
2018-02-06T00:47:05.974Z,-1.21
2018-02-06T00:48:05.957Z,-1.25
2018-02-06T00:49:05.944Z,-1.38
2018-02-06T00:50:05.928Z,-1.36
2018-02-06T00:51:05.917Z,-1.46
2018-02-06T00:52:05.905Z,-1.43
2018-02-06T00:53:05.891Z,-1.44
2018-02-06T00:54:05.876Z,-1.43
2018-02-06T00:55:05.863Z,-1.38
2018-02-06T00:56:05.845Z,-1.36
2018-02-06T00:57:05.831Z,-1.57
2018-02-06T00:58:05.816Z,-1.51
2018-02-06T00:59:05.808Z,-1.56
2018-02-06T01:00:05.789Z,-1.61
2018-02-06T01:01:05.774Z,-1.50
2018-02-06T01:02:05.760Z,-1.57
2018-02-06T01:03:05.746Z,-1.50
2018-02-06T01:04:05.737Z,-1.54
2018-02-06T01:05:05.723Z,-1.59
2018-02-06T01:06:05.708Z,-1.62
2018-02-06T01:07:05.694Z,-1.56
2018-02-06T01:08:05.680Z,-1.61
2018-02-06T01:09:05.666Z,-1.65
2018-02-06T01:10:05.651Z,-1.71
2018-02-06T01:11:05.637Z,-1.65
2018-02-06T01:12:05.620Z,-1.78
2018-02-06T01:13:05.605Z,-1.64
2018-02-06T01:14:05.591Z,-1.72
2018-02-06T01:15:05.577Z,-1.80
2018-02-06T01:16:05.605Z,-1.71
2018-02-06T01:17:05.550Z,-1.77
2018-02-06T01:18:05.534Z,-1.75
2018-02-06T01:19:05.521Z,-1.71
2018-02-06T01:20:05.510Z,-1.78
2018-02-06T01:21:05.500Z,-1.70
2018-02-06T01:22:05.485Z,-1.62
2018-02-06T01:23:05.469Z,-1.74
2018-02-06T01:24:05.454Z,-1.67
2018-02-06T01:25:05.441Z,-1.74
2018-02-06T01:26:05.428Z,-1.70
2018-02-06T01:27:05.412Z,-1.75
2018-02-06T01:28:05.393Z,-1.70
2018-02-06T01:29:05.380Z,-1.70
2018-02-06T01:30:05.365Z,-1.67
2018-02-06T01:31:05.352Z,-1.71
2018-02-06T01:32:05.337Z,-1.68
2018-02-06T01:33:05.324Z,-1.74
2018-02-06T01:34:05.308Z,-1.78
2018-02-06T01:35:05.295Z,-1.68
2018-02-06T01:36:05.288Z,-1.74
2018-02-06T01:37:05.271Z,-1.70
2018-02-06T01:38:05.256Z,-1.68
2018-02-06T01:39:05.243Z,-1.68
2018-02-06T01:40:05.227Z,-1.71
2018-02-06T01:41:05.215Z,-1.65
2018-02-06T01:42:05.199Z,-1.68
2018-02-06T01:43:05.185Z,-1.59
2018-02-06T01:44:05.168Z,-1.71
2018-02-06T01:45:05.160Z,-1.74
2018-02-06T01:46:05.142Z,-1.71
2018-02-06T01:47:05.125Z,-1.65
2018-02-06T01:48:05.113Z,-1.78
2018-02-06T01:49:05.097Z,-1.75
2018-02-06T01:50:05.083Z,-1.80
2018-02-06T01:51:05.068Z,-1.77
2018-02-06T01:52:05.059Z,-1.77
2018-02-06T01:53:05.044Z,-1.80
2018-02-06T01:54:05.030Z,-1.89
2018-02-06T01:55:05.016Z,-1.83
2018-02-06T01:56:04.998Z,-1.89
2018-02-06T01:57:04.985Z,-1.86
2018-02-06T01:58:04.969Z,-1.85
2018-02-06T01:59:04.954Z,-1.85
2018-02-06T02:00:04.944Z,-1.86
2018-02-06T02:01:04.931Z,-1.82
2018-02-06T02:02:04.917Z,-1.77
2018-02-06T02:03:04.902Z,-1.92
2018-02-06T02:04:04.888Z,-1.86
2018-02-06T02:05:04.874Z,-1.85
2018-02-06T02:06:04.859Z,-1.98
2018-02-06T02:07:04.845Z,-1.89
2018-02-06T02:08:04.828Z,-1.83
2018-02-06T02:09:04.872Z,-1.89
2018-02-06T02:10:04.798Z,-1.86
2018-02-06T02:11:04.791Z,-1.83
2018-02-06T02:12:04.770Z,-1.74
2018-02-06T02:13:04.756Z,-1.78
2018-02-06T02:14:04.741Z,-1.78
2018-02-06T02:15:04.727Z,-1.72
2018-02-06T02:16:04.719Z,-1.77
2018-02-06T02:17:04.703Z,-1.77
2018-02-06T02:18:04.688Z,-1.75
2018-02-06T02:19:04.674Z,-1.83
2018-02-06T02:20:04.660Z,-1.77
2018-02-06T02:21:04.648Z,-1.75
2018-02-06T02:22:04.631Z,-1.77
2018-02-06T02:23:04.616Z,-1.85
2018-02-06T02:24:04.598Z,-1.74
2018-02-06T02:25:04.584Z,-1.77
2018-02-06T02:26:04.571Z,-1.92
2018-02-06T02:27:04.554Z,-1.89
2018-02-06T02:28:04.541Z,-1.92
2018-02-06T02:29:04.528Z,-1.88
2018-02-06T02:30:04.512Z,-1.72
2018-02-06T02:31:04.498Z,-1.75
2018-02-06T02:32:04.489Z,-1.65
2018-02-06T02:33:04.475Z,-1.75
2018-02-06T02:34:04.459Z,-1.74
2018-02-06T02:35:04.445Z,-1.62
2018-02-06T02:36:04.433Z,-1.57
2018-02-06T02:37:04.417Z,-1.53
2018-02-06T02:38:04.402Z,-1.56
2018-02-06T02:39:04.388Z,-1.59
2018-02-06T02:40:04.370Z,-1.54
2018-02-06T02:41:04.355Z,-1.61
2018-02-06T04:39:02.662Z,-1.35
2018-02-06T04:40:02.651Z,-1.43
2018-02-06T04:41:02.637Z,-1.32
2018-02-06T04:42:02.623Z,-1.35
2018-02-06T04:43:02.607Z,-1.43
2018-02-06T04:44:02.594Z,-1.39
2018-02-06T04:45:02.579Z,-1.38
2018-02-06T04:46:02.564Z,-1.41
2018-02-06T04:47:02.550Z,-1.43
2018-02-06T04:48:02.531Z,-1.38
2018-02-06T04:49:02.517Z,-1.38
2018-02-06T04:50:02.502Z,-1.43
2018-02-06T04:51:02.487Z,-1.31
2018-02-06T04:52:02.474Z,-1.36
2018-02-06T04:53:02.459Z,-1.39
2018-02-06T04:54:02.444Z,-1.29
2018-02-06T04:55:02.430Z,-1.41
2018-02-06T04:56:02.419Z,-1.39
2018-02-06T04:57:02.406Z,-1.46
2018-02-06T04:58:02.391Z,-1.35
2018-02-06T04:59:02.376Z,-1.31
2018-02-06T05:00:02.363Z,-1.35
2018-02-06T05:01:02.347Z,-1.32
2018-02-06T05:02:02.336Z,-1.28
2018-02-06T05:03:02.321Z,-1.23
2018-02-06T05:04:02.300Z,-1.18
2018-02-06T05:05:02.286Z,-1.23
2018-02-06T05:06:02.270Z,-1.25
2018-02-06T05:07:02.256Z,-1.33
2018-02-06T05:08:02.246Z,-1.26
2018-02-06T05:09:02.232Z,-1.39
2018-02-06T05:10:02.216Z,-1.33
2018-02-06T05:11:02.207Z,-1.35
2018-02-06T05:12:02.184Z,-1.39
2018-02-06T05:13:02.172Z,-1.38
2018-02-06T05:14:02.154Z,-1.31
2018-02-06T05:15:02.140Z,-1.29
2018-02-06T05:16:02.126Z,-1.29
2018-02-06T05:17:02.113Z,-1.29
2018-02-06T05:18:02.096Z,-1.21
2018-02-06T05:19:02.082Z,-1.15
2018-02-06T05:20:02.073Z,-1.25
2018-02-06T05:21:02.057Z,-1.26
2018-02-06T05:22:02.043Z,-1.13
2018-02-06T05:23:02.028Z,-1.08
2018-02-06T05:24:02.015Z,-1.20
2018-02-06T05:25:02.001Z,-1.13
2018-02-06T05:26:01.984Z,-1.20
2018-02-06T05:27:01.971Z,-1.26
2018-02-06T05:28:01.952Z,-1.21
2018-02-06T05:29:01.937Z,-1.23
2018-02-06T05:30:01.924Z,-1.17
2018-02-06T05:31:01.912Z,-1.13
2018-02-06T05:32:01.894Z,-1.10
2018-02-06T05:33:01.879Z,-1.14
2018-02-06T05:34:01.865Z,-1.15
2018-02-06T05:35:01.849Z,-1.20
2018-02-06T05:36:01.839Z,-1.07
2018-02-06T05:37:01.824Z,-1.15
2018-02-06T05:38:01.812Z,-1.25
2018-02-06T05:39:01.795Z,-1.20
2018-02-06T05:40:01.781Z,-1.17
2018-02-06T05:41:01.766Z,-1.17
2018-02-06T05:42:01.751Z,-1.31
2018-02-06T05:43:01.736Z,-1.18
2018-02-06T05:44:01.717Z,-1.36
2018-02-06T05:45:01.704Z,-1.25
2018-02-06T05:46:01.688Z,-1.17
2018-02-06T05:47:01.673Z,-1.17
2018-02-06T05:48:01.660Z,-1.20
2018-02-06T05:49:01.649Z,-1.23
2018-02-06T05:50:01.630Z,-1.35
2018-02-06T05:51:01.618Z,-1.28
2018-02-06T05:52:01.605Z,-1.28
2018-02-06T05:53:01.589Z,-1.26
2018-02-06T05:54:01.576Z,-1.23
2018-02-06T05:55:01.561Z,-1.32
2018-02-06T05:56:01.546Z,-1.35
2018-02-06T05:57:01.532Z,-1.25
2018-02-06T05:58:01.516Z,-1.32
2018-02-06T05:59:01.501Z,-1.28
2018-02-06T06:00:01.483Z,-1.35
2018-02-06T06:01:01.469Z,-1.13
2018-02-06T06:02:01.453Z,-1.21
2018-02-06T06:03:01.438Z,-1.17
2018-02-06T06:04:01.424Z,-1.13
2018-02-06T06:05:01.415Z,-1.17
2018-02-06T06:06:01.396Z,-1.20
2018-02-06T06:07:01.380Z,-1.11
2018-02-06T06:08:01.369Z,-1.10
2018-02-06T06:09:01.355Z,-1.08
2018-02-06T06:10:01.339Z,-1.10
2018-02-06T06:11:01.326Z,-1.13
2018-02-06T06:12:01.305Z,-1.07
2018-02-06T06:13:01.293Z,-1.11
2018-02-06T06:14:01.278Z,-1.10
2018-02-06T06:15:01.266Z,-1.10
2018-02-06T06:16:01.254Z,-1.18
2018-02-06T06:17:01.238Z,-1.03
2018-02-06T06:18:01.225Z,-1.08
2018-02-06T06:19:01.209Z,-1.10
2018-02-06T06:20:01.194Z,-0.99
2018-02-06T06:21:01.180Z,-0.95
2018-02-06T06:22:01.165Z,-0.96
2018-02-06T06:23:01.203Z,-1.07
2018-02-06T06:24:01.132Z,-0.99
2018-02-06T06:25:01.118Z,-1.00
2018-02-06T06:26:01.106Z,-1.05
2018-02-06T06:27:01.088Z,-0.99
2018-02-06T06:28:01.074Z,-1.08
2018-02-06T06:29:01.064Z,-1.07
2018-02-06T06:30:01.044Z,-1.02
2018-02-06T06:31:01.030Z,-0.99
2018-02-06T06:32:01.020Z,-1.00
2018-02-06T06:33:01.005Z,-1.05
2018-02-06T06:34:00.991Z,-0.99
2018-02-06T06:35:00.976Z,-0.99
2018-02-06T06:36:00.962Z,-0.96
2018-02-06T06:37:00.947Z,-1.03
2018-02-06T06:38:00.932Z,-1.02
2018-02-06T06:39:00.922Z,-1.00
2018-02-06T06:40:00.900Z,-0.97
2018-02-06T06:41:00.885Z,-1.02
2018-02-06T06:42:00.870Z,-1.00
2018-02-06T06:43:00.855Z,-0.99
2018-02-06T06:44:00.841Z,-1.03
2018-02-06T06:45:00.827Z,-1.07
2018-02-06T06:46:00.811Z,-1.03
2018-02-06T06:47:00.798Z,-1.02
2018-02-06T06:48:00.787Z,-1.11
2018-02-06T06:49:00.773Z,-0.97
2018-02-06T06:50:00.758Z,-0.99
2018-02-06T06:51:00.744Z,-1.07
2018-02-06T06:52:00.730Z,-1.03
2018-02-06T06:53:00.761Z,-1.11
2018-02-06T06:54:00.700Z,-1.11
2018-02-06T06:55:00.686Z,-0.99
2018-02-06T06:56:00.667Z,-1.10
2018-02-06T06:57:00.653Z,-0.99
2018-02-06T06:58:00.637Z,-1.05
2018-02-06T06:59:00.623Z,-1.05
2018-02-06T07:00:00.610Z,-1.07
2018-02-06T07:01:00.595Z,-1.11
2018-02-06T07:02:00.580Z,-1.02
2018-02-06T07:03:00.566Z,-1.08
2018-02-06T07:04:00.555Z,-1.14
2018-02-06T07:05:00.541Z,-1.07
2018-02-06T07:06:00.527Z,-1.07
2018-02-06T07:07:00.512Z,-1.08
2018-02-06T07:08:00.497Z,-1.08
2018-02-06T07:09:00.483Z,-1.18
2018-02-06T07:10:00.468Z,-1.08
2018-02-06T07:11:00.454Z,-1.11
2018-02-06T07:12:00.435Z,-1.10
2018-02-06T07:13:00.421Z,-1.07
2018-02-06T07:14:00.406Z,-1.02
2018-02-06T07:15:00.390Z,-1.10
2018-02-06T07:16:00.388Z,-1.11
2018-02-06T07:17:00.363Z,-1.10
2018-02-06T07:18:00.348Z,-1.08
2018-02-06T07:19:00.333Z,-1.03
2018-02-06T07:20:00.323Z,-0.99
2018-02-06T07:21:00.308Z,-0.96
2018-02-06T07:22:00.294Z,-0.95
2018-02-06T07:23:00.279Z,-1.02
2018-02-06T07:24:00.265Z,-1.02
2018-02-06T07:25:00.251Z,-0.97
2018-02-06T07:26:00.236Z,-0.92
2018-02-06T07:27:00.222Z,-0.90
2018-02-06T07:28:00.203Z,-0.83
2018-02-06T07:29:00.189Z,-0.78
2018-02-06T07:30:00.174Z,-0.81
2018-02-06T07:31:00.160Z,-0.80
2018-02-06T07:32:00.146Z,-0.77
2018-02-06T07:33:00.132Z,-0.68
2018-02-06T07:34:00.118Z,-0.62
2018-02-06T07:35:00.103Z,-0.53
2018-02-06T07:36:00.095Z,-0.49
2018-02-06T07:37:00.079Z,-0.41
2018-02-06T07:38:00.064Z,-0.32
2018-02-06T07:39:00.051Z,-0.24
2018-02-06T07:40:00.041Z,-0.08
2018-02-06T07:41:00.024Z,0.01
2018-02-06T07:42:00.008Z,0.17
2018-02-06T07:42:59.994Z,0.40
2018-02-06T07:43:59.976Z,0.64
2018-02-06T07:44:59.963Z,0.84
2018-02-06T07:45:59.948Z,0.77
2018-02-06T07:46:59.935Z,0.80
2018-02-06T07:47:59.924Z,0.72
2018-02-06T07:48:59.908Z,0.59
2018-02-06T07:49:59.894Z,0.62
2018-02-06T07:50:59.908Z,0.38
2018-02-06T07:51:59.877Z,0.37
2018-02-06T07:52:59.859Z,0.38
2018-02-06T07:53:59.845Z,0.44
2018-02-06T07:54:59.832Z,0.15
2018-02-06T07:55:59.819Z,0.17
2018-02-06T07:56:59.806Z,0.16
2018-02-06T07:57:59.793Z,0.15
2018-02-06T07:58:59.778Z,0.01
2018-02-06T07:59:59.762Z,-0.03
2018-02-06T08:00:59.748Z,0.12
2018-02-06T08:01:59.734Z,-0.02
2018-02-06T08:02:59.723Z,-0.05
2018-02-06T08:03:59.709Z,-0.09
2018-02-06T08:04:59.696Z,-0.05
2018-02-06T08:05:59.682Z,0.01
2018-02-06T08:06:59.720Z,0.13
2018-02-06T08:07:59.660Z,0.13
2018-02-06T08:08:59.647Z,0.30
2018-02-06T08:09:59.636Z,0.43
2018-02-06T08:10:59.626Z,0.56
2018-02-06T08:11:59.630Z,0.63
2018-02-06T08:12:59.594Z,0.62
2018-02-06T08:13:59.581Z,0.60
2018-02-06T08:14:59.567Z,0.62
2018-02-06T08:15:59.550Z,0.72
2018-02-06T08:16:59.538Z,0.92
2018-02-06T08:17:59.523Z,1.24
2018-02-06T08:18:59.511Z,1.52
2018-02-06T08:19:59.503Z,1.64
2018-02-06T08:20:59.490Z,1.72
2018-02-06T08:21:59.477Z,1.86
2018-02-06T08:22:59.467Z,1.89
2018-02-06T08:23:59.448Z,2.26
2018-02-06T08:24:59.436Z,2.48
2018-02-06T08:25:59.423Z,2.89
2018-02-06T08:26:59.411Z,3.10
2018-02-06T08:27:59.401Z,3.52
2018-02-06T08:28:59.388Z,3.77
2018-02-06T08:29:59.377Z,3.86
2018-02-06T08:30:59.367Z,4.11
2018-02-06T08:31:59.360Z,4.10
2018-02-06T08:32:59.352Z,4.11
2018-02-06T08:33:59.338Z,4.00
2018-02-06T08:34:59.364Z,3.81
2018-02-06T08:35:59.356Z,3.68
2018-02-06T08:36:59.337Z,3.52
2018-02-06T08:37:59.330Z,3.19
2018-02-06T08:38:59.290Z,3.37
2018-02-06T08:39:59.276Z,3.89
2018-02-06T08:40:59.265Z,4.16
2018-02-06T08:41:59.255Z,4.49
2018-02-06T08:42:59.246Z,4.56
2018-02-06T08:43:59.236Z,4.57
2018-02-06T08:44:59.226Z,4.32
2018-02-06T08:45:59.219Z,4.38
2018-02-06T08:46:59.210Z,3.99
2018-02-06T08:47:59.205Z,4.07
2018-02-06T08:48:59.195Z,4.29
2018-02-06T08:49:59.184Z,4.83
2018-02-06T08:50:59.179Z,4.79
2018-02-06T08:51:59.168Z,5.24
2018-02-06T08:52:59.163Z,4.26
2018-02-06T08:53:59.151Z,4.39
2018-02-06T08:54:59.146Z,4.29
2018-02-06T08:55:59.131Z,4.74
2018-02-06T08:56:59.121Z,5.04
2018-02-06T08:57:59.113Z,4.90
2018-02-06T08:58:59.105Z,5.62
2018-02-06T08:59:59.097Z,6.11
2018-02-06T09:00:59.091Z,6.35
2018-02-06T09:01:59.082Z,5.85
2018-02-06T09:02:59.076Z,5.32
2018-02-06T09:03:59.078Z,5.26
2018-02-06T09:04:59.065Z,5.81
2018-02-06T09:05:59.060Z,5.87
2018-02-06T09:06:59.054Z,6.35
2018-02-06T09:07:59.047Z,6.53
2018-02-06T09:08:59.042Z,6.08
2018-02-06T09:09:59.035Z,5.80
2018-02-06T09:10:59.024Z,5.67
2018-02-06T09:11:59.016Z,6.03
2018-02-06T09:12:59.010Z,6.42
2018-02-06T09:13:59.002Z,6.53
2018-02-06T09:14:59.000Z,6.33
2018-02-06T09:15:58.995Z,5.51
2018-02-06T09:16:58.987Z,5.32
2018-02-06T09:17:58.981Z,5.29
2018-02-06T09:18:58.977Z,5.47
2018-02-06T09:19:58.973Z,5.96
2018-02-06T09:20:58.970Z,5.84
2018-02-06T09:21:58.963Z,5.67
2018-02-06T09:22:58.956Z,6.03
2018-02-06T09:23:58.949Z,7.32
2018-02-06T09:24:58.941Z,7.88
2018-02-06T09:25:58.936Z,7.37
2018-02-06T09:26:58.931Z,7.26
2018-02-06T09:27:58.929Z,7.44
2018-02-06T09:28:58.927Z,7.91
2018-02-06T09:29:58.920Z,9.04
2018-02-06T09:30:58.918Z,8.50
2018-02-06T09:31:58.917Z,7.39
2018-02-06T09:32:58.914Z,8.31
2018-02-06T09:33:58.906Z,8.31
2018-02-06T09:34:58.897Z,9.30
2018-02-06T09:35:58.892Z,9.44
2018-02-06T09:36:58.885Z,8.97
2018-02-06T09:37:58.879Z,9.27
2018-02-06T09:38:58.876Z,9.40
2018-02-06T09:39:58.873Z,9.77
2018-02-06T09:40:58.870Z,10.42
2018-02-06T09:41:58.867Z,10.24
2018-02-06T09:42:58.864Z,9.70
2018-02-06T09:43:58.866Z,9.77
2018-02-06T09:44:58.863Z,10.58
2018-02-06T09:45:58.860Z,11.05
2018-02-06T09:46:58.858Z,11.93
2018-02-06T09:47:58.858Z,12.23
2018-02-06T09:48:58.887Z,11.93
2018-02-06T09:49:58.853Z,11.60
2018-02-06T09:50:58.870Z,11.24
2018-02-06T09:51:58.847Z,10.90
2018-02-06T09:52:58.849Z,10.42
2018-02-06T09:53:58.845Z,9.38
2018-02-06T09:54:58.844Z,8.37
2018-02-06T09:55:58.844Z,7.24
2018-02-06T09:56:58.841Z,6.03
2018-02-06T09:57:58.840Z,5.41
2018-02-06T09:58:58.839Z,5.32
2018-02-06T09:59:58.841Z,5.42
2018-02-06T10:00:58.840Z,4.88
2018-02-06T10:01:58.841Z,5.02
2018-02-06T10:02:58.835Z,4.79
2018-02-06T10:03:58.832Z,4.49
2018-02-06T10:04:58.828Z,4.02
2018-02-06T10:05:58.824Z,3.75
2018-02-06T10:06:58.821Z,3.37
2018-02-06T10:07:58.812Z,3.16
2018-02-06T10:08:58.808Z,2.99
2018-02-06T10:09:58.808Z,2.83
2018-02-06T10:10:58.797Z,2.83
2018-02-06T10:11:58.791Z,2.87
2018-02-06T10:12:58.790Z,2.84
2018-02-06T10:13:58.779Z,2.92
2018-02-06T10:14:58.773Z,2.98
2018-02-06T10:15:58.770Z,3.08
2018-02-06T10:16:58.765Z,3.05
2018-02-06T10:17:58.757Z,3.10
2018-02-06T10:18:58.748Z,3.17
2018-02-06T10:19:58.741Z,3.23
2018-02-06T10:20:58.734Z,3.01
2018-02-06T10:21:58.725Z,3.04
2018-02-06T10:22:58.718Z,3.02
2018-02-06T10:23:58.706Z,3.07
2018-02-06T10:24:58.698Z,2.87
2018-02-06T10:25:58.689Z,2.80
2018-02-06T10:26:58.803Z,2.99
2018-02-06T10:27:58.677Z,2.98
2018-02-06T10:28:58.669Z,2.99
2018-02-06T10:29:58.663Z,3.02
2018-02-06T10:30:58.651Z,3.04
2018-02-06T10:31:58.640Z,2.99
2018-02-06T10:32:58.629Z,2.99
2018-02-06T10:33:58.621Z,2.83
2018-02-06T10:34:58.615Z,2.66
2018-02-06T10:35:58.603Z,2.62
2018-02-06T10:36:58.593Z,2.62
2018-02-06T10:37:58.584Z,2.56
2018-02-06T10:38:58.573Z,2.51
2018-02-06T10:39:58.568Z,2.45
2018-02-06T10:40:58.561Z,2.27
2018-02-06T10:41:58.550Z,2.27
2018-02-06T10:42:58.540Z,2.36
2018-02-06T10:43:58.530Z,2.45
2018-02-06T10:44:58.520Z,2.41
2018-02-06T10:45:58.511Z,2.56
2018-02-06T10:46:58.499Z,2.55
2018-02-06T10:47:58.485Z,2.77
2018-02-06T10:48:58.476Z,2.73
2018-02-06T10:49:58.465Z,2.95
2018-02-06T10:50:58.454Z,2.97
2018-02-06T10:51:58.445Z,2.95
2018-02-06T10:52:58.435Z,2.86
2018-02-06T10:53:58.424Z,2.92
2018-02-06T10:54:58.414Z,2.84
2018-02-06T10:55:58.408Z,2.76
2018-02-06T10:56:58.398Z,2.71
2018-02-06T10:57:58.387Z,2.77
2018-02-06T10:58:58.378Z,2.87
2018-02-06T10:59:58.367Z,2.84
2018-02-06T11:00:58.363Z,2.86
2018-02-06T11:01:58.346Z,2.92
2018-02-06T11:02:58.335Z,2.87
2018-02-06T11:03:58.321Z,2.98
2018-02-06T11:04:58.312Z,2.87
2018-02-06T11:05:58.300Z,2.89
2018-02-06T11:06:58.290Z,2.99
2018-02-06T11:07:58.280Z,2.99
2018-02-06T11:08:58.269Z,2.83
2018-02-06T11:09:58.258Z,2.83
2018-02-06T11:10:58.250Z,2.87
2018-02-06T11:11:58.244Z,2.94
2018-02-06T11:12:58.232Z,2.90
2018-02-06T11:13:58.220Z,2.92
2018-02-06T11:14:58.217Z,2.76
2018-02-06T11:15:58.202Z,2.63
2018-02-06T11:16:58.192Z,2.48
2018-02-06T11:17:58.183Z,2.62
2018-02-06T11:18:58.169Z,2.56
2018-02-06T11:19:58.169Z,2.61
2018-02-06T11:20:58.170Z,2.68
2018-02-06T11:21:58.133Z,2.65
2018-02-06T11:22:58.124Z,2.68
2018-02-06T11:23:58.113Z,2.83
2018-02-06T11:24:58.103Z,2.87
2018-02-06T11:25:58.094Z,2.86
2018-02-06T11:26:58.082Z,2.87
2018-02-06T11:27:58.075Z,2.84
2018-02-06T11:28:58.067Z,2.66
2018-02-06T11:29:58.053Z,2.74
2018-02-06T11:30:58.044Z,2.59
2018-02-06T11:31:58.029Z,2.77
2018-02-06T11:32:58.018Z,2.65
2018-02-06T11:33:58.008Z,2.74
2018-02-06T11:34:57.998Z,2.73
2018-02-06T11:35:57.991Z,2.86
2018-02-06T11:36:57.981Z,3.01
2018-02-06T11:37:57.969Z,2.99
2018-02-06T11:38:57.959Z,2.97
2018-02-06T11:39:57.950Z,2.99
2018-02-06T11:40:57.938Z,3.02
2018-02-06T11:41:57.927Z,2.98
2018-02-06T11:42:57.918Z,3.01
2018-02-06T11:43:57.902Z,3.10
2018-02-06T11:44:57.894Z,2.87
2018-02-06T11:45:57.882Z,2.83
2018-02-06T11:46:57.871Z,2.76
2018-02-06T11:47:57.862Z,2.69
2018-02-06T11:48:57.851Z,2.73
2018-02-06T11:49:57.841Z,2.74
2018-02-06T11:50:57.829Z,2.66
2018-02-06T11:51:57.826Z,2.83
2018-02-06T11:52:57.818Z,2.90
2018-02-06T11:53:57.808Z,3.05
2018-02-06T11:54:57.802Z,3.07
2018-02-06T11:55:57.783Z,3.04
2018-02-06T11:56:57.772Z,3.08
2018-02-06T11:57:57.761Z,3.01
2018-02-06T11:58:57.750Z,2.98
2018-02-06T11:59:57.736Z,2.98
2018-02-06T12:00:57.727Z,2.98
2018-02-06T12:01:57.714Z,2.94
2018-02-06T12:02:57.709Z,2.97
2018-02-06T12:03:57.700Z,3.04
2018-02-06T12:04:57.686Z,3.05
2018-02-06T12:05:57.674Z,3.04
2018-02-06T12:06:57.667Z,3.05
2018-02-06T12:07:57.656Z,2.97
2018-02-06T12:08:57.649Z,3.05
2018-02-06T12:09:57.637Z,3.02
2018-02-06T12:10:57.627Z,3.04
2018-02-06T12:11:57.616Z,3.01
2018-02-06T12:12:57.612Z,3.08
2018-02-06T12:13:57.597Z,3.08
2018-02-06T12:14:57.586Z,3.02
2018-02-06T12:15:57.573Z,3.05
2018-02-06T12:16:57.564Z,3.07
2018-02-06T12:17:57.551Z,2.98
2018-02-06T12:18:57.538Z,2.98
2018-02-06T12:19:57.529Z,3.01
2018-02-06T12:20:57.523Z,3.05
2018-02-06T12:21:57.506Z,3.08
2018-02-06T12:22:57.500Z,3.19
2018-02-06T12:23:57.492Z,3.15
2018-02-06T12:24:57.482Z,3.22
2018-02-06T12:25:57.470Z,3.19
2018-02-06T12:26:57.460Z,3.23
2018-02-06T12:27:57.451Z,3.28
2018-02-06T12:28:57.443Z,3.31
2018-02-06T12:29:57.431Z,3.44
2018-02-06T12:30:57.418Z,3.34
2018-02-06T12:31:57.407Z,3.13
2018-02-06T12:32:57.395Z,3.19
2018-02-06T12:33:57.383Z,3.26
2018-02-06T12:34:57.372Z,3.22
2018-02-06T12:35:57.368Z,3.26
2018-02-06T12:36:57.358Z,3.25
2018-02-06T12:37:57.348Z,3.31
2018-02-06T12:38:57.338Z,3.33
2018-02-06T12:39:57.321Z,3.35
2018-02-06T12:40:57.312Z,3.31
2018-02-06T12:41:57.301Z,3.31
2018-02-06T12:42:57.292Z,3.26
2018-02-06T12:43:57.282Z,3.16
2018-02-06T12:44:57.271Z,2.99
2018-02-06T12:45:57.261Z,2.97
2018-02-06T12:46:57.249Z,3.13
2018-02-06T12:47:57.248Z,3.02
2018-02-06T12:48:57.233Z,2.92
2018-02-06T12:49:57.222Z,2.97
2018-02-06T12:50:57.215Z,3.10
2018-02-06T12:51:57.202Z,3.07
2018-02-06T12:52:57.192Z,3.07
2018-02-06T12:53:57.182Z,3.05
2018-02-06T12:54:57.170Z,3.04
2018-02-06T12:55:57.155Z,3.07
2018-02-06T12:56:57.149Z,2.99
2018-02-06T12:57:57.136Z,3.05
2018-02-06T12:58:57.124Z,2.98
2018-02-06T12:59:57.115Z,2.97
2018-02-06T13:00:57.103Z,2.98
2018-02-06T13:01:57.092Z,2.89
2018-02-06T13:02:57.084Z,2.86
2018-02-06T13:03:57.083Z,3.02
2018-02-06T13:04:57.068Z,3.02
2018-02-06T13:05:57.056Z,2.99
2018-02-06T13:06:57.044Z,3.05
2018-02-06T13:07:57.036Z,3.13
2018-02-06T13:08:57.042Z,3.15
2018-02-06T13:09:57.014Z,3.16
2018-02-06T13:10:57.004Z,3.08
2018-02-06T13:11:56.989Z,3.22
2018-02-06T13:12:56.979Z,3.16
2018-02-06T13:13:56.967Z,3.23
2018-02-06T13:14:56.956Z,3.20
2018-02-06T13:15:56.946Z,2.99
2018-02-06T13:16:56.942Z,3.07
2018-02-06T13:17:56.927Z,3.05
2018-02-06T13:18:56.915Z,3.01
2018-02-06T13:19:56.908Z,3.12
2018-02-06T13:20:56.900Z,3.23
2018-02-06T13:21:56.890Z,3.26
2018-02-06T13:22:56.876Z,3.33
2018-02-06T13:23:56.870Z,3.31
2018-02-06T13:24:56.860Z,3.15
2018-02-06T13:25:56.845Z,3.02
2018-02-06T13:26:56.839Z,2.97
2018-02-06T13:27:56.824Z,3.04
2018-02-06T13:28:56.812Z,3.07
2018-02-06T13:29:56.802Z,3.05
2018-02-06T13:30:56.792Z,2.98
2018-02-06T13:31:56.779Z,2.86
2018-02-06T13:32:56.768Z,2.87
2018-02-06T13:33:56.758Z,2.97
2018-02-06T13:34:56.747Z,2.98
2018-02-06T13:35:56.745Z,2.84
2018-02-06T13:36:56.733Z,2.90
2018-02-06T13:37:56.720Z,2.83
2018-02-06T13:38:56.709Z,2.86
2018-02-06T13:39:56.694Z,2.84
2018-02-06T13:40:56.683Z,2.87
2018-02-06T13:41:56.671Z,2.71
2018-02-06T13:42:56.661Z,2.89
2018-02-06T13:43:56.663Z,2.73
2018-02-06T13:44:56.646Z,2.80
2018-02-06T13:45:56.636Z,2.86
2018-02-06T13:46:56.626Z,2.86
2018-02-06T13:47:56.613Z,2.87
2018-02-06T13:48:56.606Z,2.95
2018-02-06T13:49:56.595Z,3.04
2018-02-06T13:50:56.578Z,3.07
2018-02-06T13:51:56.567Z,3.08
2018-02-06T13:52:56.557Z,3.05
2018-02-06T13:53:56.547Z,3.07
2018-02-06T13:54:56.536Z,3.10
2018-02-06T13:55:56.522Z,3.13
2018-02-06T13:56:56.511Z,3.16
2018-02-06T13:57:56.500Z,3.22
2018-02-06T13:58:56.488Z,3.17
2018-02-06T13:59:56.483Z,3.31
2018-02-06T14:00:56.473Z,3.30
2018-02-06T14:01:56.462Z,3.35
2018-02-06T14:02:56.454Z,3.30
2018-02-06T14:03:56.444Z,3.19
2018-02-06T14:04:56.432Z,3.26
2018-02-06T14:05:56.422Z,3.35
2018-02-06T14:06:56.410Z,3.34
2018-02-06T14:07:56.394Z,3.23
2018-02-06T14:08:56.389Z,3.28
2018-02-06T14:09:56.374Z,3.46
2018-02-06T14:10:56.361Z,3.42
2018-02-06T14:11:56.354Z,3.34
2018-02-06T14:12:56.342Z,3.28
2018-02-06T14:13:56.330Z,3.26
2018-02-06T14:14:56.320Z,3.42
2018-02-06T14:15:56.314Z,3.42
2018-02-06T14:16:56.302Z,3.39
2018-02-06T14:17:56.296Z,3.42
2018-02-06T14:18:56.283Z,3.31
2018-02-06T14:19:56.273Z,3.25
2018-02-06T14:20:56.261Z,3.17
2018-02-06T14:21:56.250Z,3.10
2018-02-06T14:22:56.239Z,3.19
2018-02-06T14:23:56.226Z,3.16
2018-02-06T14:24:56.218Z,3.15
2018-02-06T14:25:56.205Z,3.17
2018-02-06T14:26:56.194Z,3.23
2018-02-06T14:27:56.184Z,3.33
2018-02-06T14:28:56.172Z,3.26
2018-02-06T14:29:56.162Z,2.99
2018-02-06T14:30:56.153Z,3.05
2018-02-06T14:31:56.145Z,3.08
2018-02-06T14:32:56.134Z,3.22
2018-02-06T14:33:56.126Z,3.16
2018-02-06T14:34:56.114Z,3.07
2018-02-06T14:35:56.107Z,3.05
2018-02-06T14:36:56.092Z,3.04
2018-02-06T14:37:56.080Z,3.02
2018-02-06T14:38:56.070Z,3.10
2018-02-06T14:39:56.056Z,3.02
2018-02-06T14:40:56.044Z,3.01
2018-02-06T14:41:56.037Z,2.92
2018-02-06T14:42:56.024Z,2.84
2018-02-06T14:43:56.019Z,2.87
2018-02-06T14:44:56.007Z,2.89
2018-02-06T14:45:55.997Z,3.01
2018-02-06T14:46:55.988Z,2.94
2018-02-06T14:47:55.971Z,2.86
2018-02-06T14:48:55.963Z,2.77
2018-02-06T14:49:55.950Z,2.79
2018-02-06T14:50:55.938Z,2.61
2018-02-06T14:51:55.928Z,2.58
2018-02-06T14:52:55.917Z,2.58
2018-02-06T14:53:55.906Z,2.61
2018-02-06T14:54:55.891Z,2.62
2018-02-06T14:55:55.890Z,2.69
2018-02-06T14:56:55.876Z,2.71
2018-02-06T14:57:55.864Z,2.83
2018-02-06T14:58:55.852Z,2.71
2018-02-06T14:59:55.844Z,2.84
2018-02-06T15:00:55.830Z,2.86
2018-02-06T15:01:55.851Z,2.59
2018-02-06T15:02:55.808Z,2.63